METAR AND TAF INFORMATION
METAR FOR LEBG
ADDS - METARS form results

(1211 UTC 22 July 2019)
Data provider http://aviationweather.gov/metar/data/
 
METAR text: LEBG 221200Z 03009KT 360V080 CAVOK 32/14 Q1023
Conditions at: LEBG (BURGOS/VILLAFRIA, ES) observed 1200 UTC 22 July 2019
Temperature: 32.0°C (90°F)
Dewpoint: 14.0°C (57°F) [RH = 34%]
Pressure (altimeter): 30.21 inches Hg (1023.0 mb)
Winds: from the NNE (30 degrees) at 10 MPH (9 knots; 4.6 m/s)
Visibility: 6 or more miles (10+ km)
Ceiling: ceiling and visibility are OK
Clouds: unknown
Weather: no significant weather observed at this time

METAR text: LEBG 221130Z 04010KT 360V080 CAVOK 31/14 Q1023
Conditions at: LEBG (BURGOS/VILLAFRIA, ES) observed 1130 UTC 22 July 2019
Temperature: 31.0°C (88°F)
Dewpoint: 14.0°C (57°F) [RH = 36%]
Pressure (altimeter): 30.21 inches Hg (1023.0 mb)
Winds: from the NE (40 degrees) at 12 MPH (10 knots; 5.1 m/s)
Visibility: 6 or more miles (10+ km)
Ceiling: ceiling and visibility are OK
Clouds: unknown
Weather: no significant weather observed at this time

Forecast for: LEBG (BURGOS/VILLAFRIA, ES)
Text: TAF LEBG 221100Z 2212/2221 11010KT CAVOK
Forecast period: 1200 to 2100 UTC 22 July 2019
Forecast type: FROM: standard forecast or significant change
Winds: from the ESE (110 degrees) at 12 MPH (10 knots; 5.1 m/s)
Visibility: 6 or more miles 10+ km)
Ceiling: unknown
Clouds: missing
Weather: NSW  (no significant weather)
Text: PROB40
Forecast period: 1500 to 2100 UTC 22 July 2019
Forecast type: TEMPORARY: The following changes expected for less than half the time period
Visibility: missing
Ceiling: at least 12,000 feet AGL
Clouds: few clouds at 4000 feet AGL
Weather: no significant weather forecast for this period

AIRPORT MAP

RUNWAY INFORMATION
Runway 06 Runway length 4393 ft Runway width 98 ft
Runway elevation 2907 ft Runway displaced threshold 0 ft Runway heading 56
Runway 24 Runway length 4393 ft Runway width 98 ft
Runway elevation 2945 ft Runway displaced threshold 0 ft Runway heading 236

AIRPORT FREQUENCIES
Type UNIC Name UNIC Frequency 122.4 MHZ

AIRPORT NEAR NAVIGATION AIDS
Type NDB Name Burgos Frequency 357 KHZ
Type VOR-DME Name Burgos Frequency 111400 KHZ